createdAt,value
2022-12-24T00:00:36.441Z,1.30
2022-12-24T00:03:04.940Z,1.23
2022-12-24T00:05:33.289Z,1.30
2022-12-24T00:08:01.530Z,1.55
2022-12-24T00:10:29.736Z,1.40
2022-12-24T00:12:57.968Z,1.77
2022-12-24T00:15:27.601Z,1.15
2022-12-24T00:17:55.808Z,1.38
2022-12-24T00:20:24.972Z,1.20
2022-12-24T00:22:53.335Z,1.60
2022-12-24T00:25:21.711Z,1.17
2022-12-24T00:27:50.013Z,1.20
2022-12-24T00:30:18.342Z,1.50
2022-12-24T00:32:47.994Z,1.83
2022-12-24T00:35:16.454Z,4.07
2022-12-24T00:37:44.802Z,1.95
2022-12-24T00:40:13.479Z,2.35
2022-12-24T00:42:41.759Z,1.30
2022-12-24T00:45:11.253Z,1.25
2022-12-24T00:47:39.502Z,1.40
2022-12-24T00:50:10.273Z,2.25
2022-12-24T00:52:38.632Z,2.33
2022-12-24T00:55:07.918Z,2.60
2022-12-24T00:57:36.314Z,3.90
2022-12-24T01:00:05.445Z,2.42
2022-12-24T01:02:33.850Z,1.52
2022-12-24T01:05:10.302Z,2.65
2022-12-24T01:07:41.652Z,1.70
2022-12-24T01:10:11.607Z,2.13
2022-12-24T01:12:40.369Z,1.73
2022-12-24T01:15:09.481Z,2.60
2022-12-24T01:17:37.830Z,1.70
2022-12-24T01:20:08.388Z,2.10
2022-12-24T01:22:37.039Z,1.60
2022-12-24T01:25:07.609Z,1.70
2022-12-24T01:30:04.098Z,2.78
2022-12-24T01:32:32.399Z,1.80
2022-12-24T01:35:00.941Z,2.13
2022-12-24T01:37:29.266Z,1.85
2022-12-24T01:40:17.804Z,2.40
2022-12-24T01:43:07.169Z,2.55
2022-12-24T01:45:48.161Z,2.03
2022-12-24T01:48:41.882Z,2.55
2022-12-24T01:51:16.376Z,2.08
2022-12-24T01:53:47.004Z,1.95
2022-12-24T01:58:47.921Z,1.60
2022-12-24T02:01:16.584Z,2.00
2022-12-24T02:03:45.488Z,2.63
2022-12-24T02:06:16.540Z,2.33
2022-12-24T02:08:45.407Z,2.67
2022-12-24T02:11:15.247Z,3.88
2022-12-24T02:13:52.902Z,2.25
2022-12-24T02:16:30.882Z,2.22
2022-12-24T02:19:06.770Z,2.13
2022-12-24T02:21:56.482Z,1.90
2022-12-24T02:25:04.171Z,2.28
2022-12-24T02:27:45.621Z,2.00
2022-12-24T02:30:18.667Z,2.60
2022-12-24T02:32:57.946Z,2.72
2022-12-24T02:35:31.973Z,2.83
2022-12-24T02:38:04.584Z,4.07
2022-12-24T02:40:37.591Z,3.97
2022-12-24T02:43:11.616Z,2.30
2022-12-24T02:45:42.085Z,4.38
2022-12-24T02:48:10.902Z,2.22
2022-12-24T02:50:39.279Z,5.18
2022-12-24T02:53:10.547Z,1.80
2022-12-24T02:55:45.772Z,2.00
2022-12-24T02:58:26.463Z,1.90
2022-12-24T03:03:39.733Z,3.13
2022-12-24T03:06:15.565Z,2.63
2022-12-24T03:08:51.655Z,1.98
2022-12-24T03:11:20.061Z,1.98
2022-12-24T03:13:49.278Z,3.03
2022-12-24T03:16:23.023Z,2.53
2022-12-24T03:18:52.218Z,2.88
2022-12-24T03:21:25.544Z,2.13
2022-12-24T03:23:53.847Z,2.60
2022-12-24T03:26:22.473Z,2.58
2022-12-24T03:28:51.060Z,3.88
2022-12-24T03:31:20.853Z,3.08
2022-12-24T03:33:49.635Z,1.70
2022-12-24T03:36:18.451Z,3.45
2022-12-24T03:38:46.747Z,2.88
2022-12-24T03:41:15.041Z,2.35
2022-12-24T03:43:43.293Z,2.15
2022-12-24T03:46:11.590Z,2.40
2022-12-24T03:48:41.295Z,2.97
2022-12-24T03:51:18.162Z,3.33
2022-12-24T03:53:46.499Z,3.08
2022-12-24T03:56:14.794Z,3.10
2022-12-24T03:58:43.045Z,2.20
2022-12-24T04:01:11.442Z,2.88
2022-12-24T04:03:41.120Z,3.08
2022-12-24T04:06:11.051Z,3.28
2022-12-24T04:08:39.486Z,2.03
2022-12-24T04:11:11.527Z,2.13
2022-12-24T04:13:39.850Z,3.15
2022-12-24T04:16:09.782Z,2.55
2022-12-24T04:18:38.685Z,5.45
2022-12-24T04:21:08.978Z,4.35
2022-12-24T04:23:38.920Z,2.95
2022-12-24T04:26:08.087Z,4.60
2022-12-24T04:28:36.598Z,4.03
2022-12-24T04:31:06.687Z,2.75
2022-12-24T04:33:35.188Z,2.30
2022-12-24T04:36:05.489Z,5.25
2022-12-24T04:38:35.293Z,3.88
2022-12-24T04:41:04.993Z,2.60
2022-12-24T04:43:33.993Z,4.77
2022-12-24T04:46:05.909Z,3.63
2022-12-24T04:48:34.402Z,2.30
2022-12-24T04:51:03.623Z,2.90
2022-12-24T04:53:32.253Z,2.45
2022-12-24T04:56:01.909Z,5.95
2022-12-24T04:58:30.704Z,1.90
2022-12-24T05:01:04.967Z,2.53
2022-12-24T05:03:33.588Z,1.70
2022-12-24T05:06:05.382Z,4.95
2022-12-24T05:08:34.624Z,2.55
2022-12-24T05:11:04.397Z,3.03
2022-12-24T05:13:40.755Z,3.27
2022-12-24T05:16:15.321Z,2.53
2022-12-24T05:18:43.686Z,2.40
2022-12-24T05:21:13.069Z,3.28
2022-12-24T05:23:59.056Z,4.15
2022-12-24T05:26:32.640Z,3.25
2022-12-24T05:29:02.246Z,2.88
2022-12-24T05:31:33.394Z,5.07
2022-12-24T05:34:01.949Z,4.65
2022-12-24T05:36:30.356Z,5.10
2022-12-24T05:38:58.759Z,3.13
2022-12-24T05:41:27.240Z,3.40
2022-12-24T05:43:56.861Z,2.63
2022-12-24T05:46:26.184Z,2.38
2022-12-24T05:48:54.646Z,4.47
2022-12-24T05:51:24.087Z,4.90
2022-12-24T05:53:52.882Z,3.72
2022-12-24T05:56:22.441Z,4.82
2022-12-24T05:58:52.130Z,3.05
2022-12-24T06:01:22.964Z,2.10
2022-12-24T06:03:51.656Z,2.83
2022-12-24T06:06:22.276Z,3.17
2022-12-24T06:11:20.310Z,3.55
2022-12-24T06:13:49.208Z,2.70
2022-12-24T06:16:19.878Z,2.00
2022-12-24T06:18:49.744Z,4.75
2022-12-24T06:21:18.173Z,3.38
2022-12-24T06:23:47.059Z,2.97
2022-12-24T06:26:17.995Z,5.55
2022-12-24T06:28:46.584Z,5.45
2022-12-24T06:31:17.003Z,2.80
2022-12-24T06:33:45.545Z,3.65
2022-12-24T06:36:18.470Z,3.97
2022-12-24T06:38:47.204Z,3.40
2022-12-24T06:41:16.193Z,5.88
2022-12-24T06:43:45.794Z,3.50
2022-12-24T06:46:14.641Z,4.03
2022-12-24T06:48:44.215Z,6.50
2022-12-24T06:51:12.746Z,4.65
2022-12-24T06:53:42.451Z,3.47
2022-12-24T06:56:13.014Z,6.53
2022-12-24T06:58:41.836Z,4.05
2022-12-24T07:01:12.380Z,3.22
2022-12-24T07:06:12.619Z,5.03
2022-12-24T07:08:42.303Z,2.55
2022-12-24T07:11:10.657Z,5.13
2022-12-24T07:13:39.084Z,4.38
2022-12-24T07:16:07.958Z,4.13
2022-12-24T07:18:36.395Z,3.63
2022-12-24T07:21:05.808Z,4.53
2022-12-24T07:23:34.297Z,3.35
2022-12-24T07:26:05.305Z,2.75
2022-12-24T07:28:33.786Z,3.50
2022-12-24T07:31:02.181Z,5.13
2022-12-24T07:33:31.231Z,6.80
2022-12-24T07:36:01.755Z,6.35
2022-12-24T07:38:30.669Z,7.70
2022-12-24T07:40:59.004Z,5.45
2022-12-24T07:43:29.090Z,7.13
2022-12-24T07:45:57.932Z,5.40
2022-12-24T07:48:27.615Z,4.28
2022-12-24T07:50:56.711Z,3.40
2022-12-24T07:53:26.211Z,4.82
2022-12-24T07:55:54.765Z,5.80
2022-12-24T07:58:23.753Z,4.43
2022-12-24T08:00:58.390Z,3.85
2022-12-24T08:03:27.077Z,7.45
2022-12-24T08:05:55.482Z,5.07
2022-12-24T08:08:23.772Z,3.22
2022-12-24T08:10:52.446Z,3.20
2022-12-24T08:13:20.770Z,3.20
2022-12-24T08:15:49.107Z,2.70
2022-12-24T08:18:18.747Z,6.72
2022-12-24T08:20:47.018Z,3.40
2022-12-24T08:23:15.338Z,2.97
2022-12-24T08:25:44.181Z,4.40
2022-12-24T08:28:13.022Z,3.00
2022-12-24T08:30:41.472Z,3.13
2022-12-24T08:33:10.135Z,3.72
2022-12-24T08:35:39.807Z,4.32
2022-12-24T08:38:08.027Z,5.80
2022-12-24T08:40:36.410Z,4.72
2022-12-24T08:43:05.644Z,6.82
2022-12-24T08:45:39.877Z,3.22
2022-12-24T08:48:09.374Z,3.05
2022-12-24T08:50:40.195Z,2.63
2022-12-24T08:53:08.949Z,2.47
2022-12-24T08:55:37.611Z,3.20
2022-12-24T08:58:05.864Z,2.75
2022-12-24T09:00:34.218Z,3.95
2022-12-24T09:03:03.213Z,3.28
2022-12-24T09:05:31.786Z,2.95
2022-12-24T09:08:01.383Z,4.00
2022-12-24T09:10:29.752Z,2.00
2022-12-24T09:12:58.096Z,2.67
2022-12-24T09:15:26.364Z,2.75
2022-12-24T09:17:54.684Z,3.17
2022-12-24T09:20:23.227Z,4.00
2022-12-24T09:22:51.588Z,2.72
2022-12-24T09:25:21.277Z,3.72
2022-12-24T09:27:49.560Z,2.30
2022-12-24T09:30:18.108Z,2.30
2022-12-24T09:32:46.525Z,2.15
2022-12-24T09:35:14.913Z,2.15
2022-12-24T09:37:43.230Z,1.73
2022-12-24T09:40:22.307Z,4.22
2022-12-24T09:42:53.543Z,2.28
2022-12-24T09:45:25.728Z,1.80
2022-12-24T09:47:56.988Z,2.72
2022-12-24T09:50:34.217Z,2.45
2022-12-24T09:53:06.048Z,3.90
2022-12-24T09:55:46.221Z,2.47
2022-12-24T09:58:23.245Z,3.88
2022-12-24T10:00:52.320Z,2.50
2022-12-24T10:03:20.655Z,2.17
2022-12-24T10:05:58.567Z,3.88
2022-12-24T10:08:32.398Z,2.20
2022-12-24T10:11:09.414Z,2.88
2022-12-24T10:13:50.131Z,1.70
2022-12-24T10:18:53.919Z,3.58
2022-12-24T10:21:30.457Z,2.58
2022-12-24T10:24:02.099Z,2.72
2022-12-24T10:26:35.102Z,3.38
2022-12-24T10:29:09.023Z,2.03
2022-12-24T10:31:41.447Z,1.75
2022-12-24T10:34:15.122Z,1.80
2022-12-24T10:36:43.363Z,2.13
2022-12-24T10:39:16.747Z,2.47
2022-12-24T10:41:47.277Z,4.53
2022-12-24T10:44:17.962Z,2.78
2022-12-24T10:46:47.328Z,2.10
2022-12-24T10:49:18.189Z,2.58
2022-12-24T10:51:49.364Z,4.10
2022-12-24T10:54:26.277Z,4.40
2022-12-24T10:57:00.026Z,2.30
2022-12-24T10:59:30.869Z,2.20
2022-12-24T11:02:00.869Z,4.13
2022-12-24T11:04:30.866Z,3.42
2022-12-24T11:07:01.247Z,5.07
2022-12-24T11:09:31.157Z,2.28
2022-12-24T11:12:08.420Z,3.58
2022-12-24T11:14:39.557Z,2.22
2022-12-24T11:17:08.063Z,1.75
2022-12-24T11:19:38.768Z,4.90
2022-12-24T11:22:09.034Z,2.45
2022-12-24T11:24:40.111Z,3.63
2022-12-24T11:27:36.110Z,3.55
2022-12-24T11:30:29.953Z,5.35
2022-12-24T11:33:18.110Z,2.88
2022-12-24T11:35:49.165Z,1.60
2022-12-24T11:38:21.980Z,2.25
2022-12-24T11:40:52.198Z,6.82
2022-12-24T11:43:22.813Z,3.58
2022-12-24T11:48:30.422Z,7.00
2022-12-24T11:51:00.646Z,2.97
2022-12-24T11:53:34.297Z,3.53
2022-12-24T11:56:07.365Z,5.10
2022-12-24T11:58:40.041Z,4.00
2022-12-24T12:01:15.957Z,2.33
2022-12-24T12:03:47.643Z,2.08
2022-12-24T12:06:27.842Z,3.28
2022-12-24T12:08:58.676Z,6.00
2022-12-24T12:11:27.653Z,7.25
2022-12-24T12:13:58.959Z,3.15
2022-12-24T12:16:51.606Z,4.03
2022-12-24T12:19:21.905Z,4.60
2022-12-24T12:21:50.810Z,3.88
2022-12-24T12:24:28.272Z,3.22
2022-12-24T12:27:05.926Z,3.33
2022-12-24T12:29:38.752Z,4.63
2022-12-24T12:32:09.060Z,3.20
2022-12-24T12:34:41.314Z,4.40
2022-12-24T12:37:15.047Z,4.97
2022-12-24T12:39:44.016Z,4.65
2022-12-24T12:42:16.580Z,3.92
2022-12-24T12:44:54.625Z,3.25
2022-12-24T12:47:33.890Z,4.57
2022-12-24T12:50:09.259Z,3.45
2022-12-24T12:52:51.546Z,3.38
2022-12-24T12:55:27.808Z,4.57
2022-12-24T12:57:59.169Z,3.47
2022-12-24T13:00:29.426Z,4.57
2022-12-24T13:03:16.676Z,6.45
2022-12-24T13:06:12.941Z,2.50
2022-12-24T13:09:05.176Z,4.20
2022-12-24T13:11:44.149Z,4.25
2022-12-24T13:14:37.726Z,4.13
2022-12-24T13:17:19.592Z,3.35
2022-12-24T13:20:09.918Z,4.10
2022-12-24T13:22:38.337Z,4.78
2022-12-24T13:25:07.298Z,3.47
2022-12-24T13:27:36.154Z,5.32
2022-12-24T13:30:10.750Z,4.25
2022-12-24T13:32:51.516Z,4.07
2022-12-24T13:35:38.908Z,3.40
2022-12-24T13:38:35.506Z,3.92
2022-12-24T13:41:41.188Z,3.88
2022-12-24T13:44:18.741Z,3.97
2022-12-24T13:46:53.027Z,5.28
2022-12-24T13:49:27.288Z,5.45
2022-12-24T13:52:08.195Z,4.50
2022-12-24T13:54:37.402Z,3.15
2022-12-24T13:57:27.491Z,5.25
2022-12-24T13:59:59.506Z,1.90
2022-12-24T14:02:30.446Z,3.78
2022-12-24T14:05:02.701Z,4.50
2022-12-24T14:07:31.207Z,2.88
2022-12-24T14:10:00.920Z,2.45
2022-12-24T14:12:48.442Z,4.97
2022-12-24T14:16:04.866Z,4.10
2022-12-24T14:18:36.645Z,3.65
2022-12-24T14:21:07.424Z,3.80
2022-12-24T14:23:46.264Z,2.60
2022-12-24T14:26:17.537Z,2.15
2022-12-24T14:28:48.452Z,5.03
2022-12-24T14:31:18.493Z,3.80
2022-12-24T14:33:47.220Z,4.63
2022-12-24T14:36:21.564Z,3.75
2022-12-24T14:38:50.024Z,3.55
2022-12-24T14:41:35.410Z,7.13
2022-12-24T14:44:11.489Z,5.05
2022-12-24T14:46:44.161Z,3.38
2022-12-24T14:49:21.626Z,3.33
2022-12-24T14:51:58.483Z,3.47
2022-12-24T14:54:36.131Z,2.70
2022-12-24T14:57:20.722Z,2.40
2022-12-24T14:59:51.752Z,4.72
2022-12-24T15:02:31.953Z,2.95
2022-12-24T15:05:19.776Z,2.78
2022-12-24T15:07:57.334Z,3.10
2022-12-24T15:10:32.198Z,6.18
2022-12-24T15:13:04.172Z,2.97
2022-12-24T15:15:32.576Z,3.22
2022-12-24T15:18:01.426Z,6.50
2022-12-24T15:20:30.516Z,3.28
2022-12-24T15:23:00.391Z,3.95
2022-12-24T15:25:30.282Z,3.20
2022-12-24T15:27:59.031Z,3.40
2022-12-24T15:30:29.812Z,5.43
2022-12-24T15:32:59.264Z,4.15
2022-12-24T15:35:33.537Z,5.05
2022-12-24T15:38:04.069Z,3.13
2022-12-24T15:40:33.384Z,3.65
2022-12-24T15:43:02.309Z,4.18
2022-12-24T15:45:31.679Z,2.45
2022-12-24T15:48:01.907Z,5.88
2022-12-24T15:50:31.925Z,3.78
2022-12-24T15:53:20.513Z,3.13
2022-12-24T15:56:03.131Z,4.83
2022-12-24T15:58:33.316Z,3.83
2022-12-24T16:01:03.484Z,4.38
2022-12-24T16:03:32.280Z,2.42
2022-12-24T16:06:02.092Z,3.50
2022-12-24T16:08:34.116Z,2.53
2022-12-24T16:11:24.085Z,2.65
2022-12-24T16:14:14.199Z,3.58
2022-12-24T16:16:44.221Z,5.28
2022-12-24T16:19:19.751Z,5.57
2022-12-24T16:21:52.561Z,3.35
2022-12-24T16:24:24.351Z,4.05
2022-12-24T16:26:53.079Z,3.35
2022-12-24T16:29:22.581Z,4.32
2022-12-24T16:31:52.160Z,3.70
2022-12-24T16:34:23.640Z,2.92
2022-12-24T16:36:52.096Z,2.78
2022-12-24T16:39:26.701Z,2.88
2022-12-24T16:42:25.501Z,2.40
2022-12-24T16:44:55.457Z,3.80
2022-12-24T16:47:26.917Z,3.95
2022-12-24T16:49:55.714Z,3.45
2022-12-24T16:52:26.325Z,5.32
2022-12-24T16:57:25.149Z,4.38
2022-12-24T16:59:53.979Z,2.40
2022-12-24T17:02:24.152Z,4.03
2022-12-24T17:04:52.681Z,4.93
2022-12-24T17:07:22.066Z,4.43
2022-12-24T17:09:50.336Z,3.65
2022-12-24T17:12:21.244Z,3.00
2022-12-24T17:14:49.714Z,5.15
2022-12-24T17:17:21.027Z,2.88
2022-12-24T17:19:49.320Z,3.35
2022-12-24T17:22:17.925Z,4.03
2022-12-24T17:24:46.182Z,2.80
2022-12-24T17:27:14.916Z,3.33
2022-12-24T17:29:44.624Z,2.17
2022-12-24T17:32:13.086Z,2.63
2022-12-24T17:34:41.747Z,4.18
2022-12-24T17:37:10.098Z,2.85
2022-12-24T17:39:38.583Z,4.50
2022-12-24T17:42:06.935Z,4.88
2022-12-24T17:44:35.288Z,3.50
2022-12-24T17:47:06.076Z,3.83
2022-12-24T17:49:35.036Z,3.05
2022-12-24T17:52:04.653Z,5.43
2022-12-24T17:54:33.210Z,3.42
2022-12-24T17:57:01.887Z,2.28
2022-12-24T17:59:30.216Z,4.07
2022-12-24T18:01:58.582Z,3.70
2022-12-24T18:04:28.241Z,3.67
2022-12-24T18:07:02.219Z,3.20
2022-12-24T18:09:31.468Z,2.95
2022-12-24T18:11:59.843Z,4.85
2022-12-24T18:14:28.143Z,3.80
2022-12-24T18:16:56.425Z,2.83
2022-12-24T18:19:24.848Z,6.35
2022-12-24T18:21:54.545Z,3.85
2022-12-24T18:24:22.913Z,3.50
2022-12-24T18:26:51.185Z,4.72
2022-12-24T18:29:19.617Z,5.32
2022-12-24T18:31:47.986Z,3.45
2022-12-24T18:34:16.475Z,2.63
2022-12-24T18:36:48.279Z,4.50
2022-12-24T18:39:20.923Z,4.88
2022-12-24T18:41:49.499Z,4.23
2022-12-24T18:44:24.297Z,3.92
2022-12-24T18:46:53.555Z,3.70
2022-12-24T18:49:21.926Z,3.45
2022-12-24T18:51:50.228Z,5.47
2022-12-24T18:54:19.924Z,5.30
2022-12-24T18:56:51.285Z,4.97
2022-12-24T18:59:19.623Z,3.88
2022-12-24T19:01:48.125Z,7.82
2022-12-24T19:04:16.801Z,5.32
2022-12-24T19:06:50.870Z,3.10
2022-12-24T19:09:23.090Z,5.78
2022-12-24T19:11:51.440Z,6.63
2022-12-24T19:14:20.939Z,3.45
2022-12-24T19:16:49.507Z,5.70
2022-12-24T19:19:18.837Z,3.20
2022-12-24T19:21:47.210Z,4.03
2022-12-24T19:24:15.556Z,4.95
2022-12-24T19:26:45.282Z,6.25
2022-12-24T19:29:13.667Z,6.00
2022-12-24T19:31:44.359Z,4.90
2022-12-24T19:34:12.794Z,4.82
2022-12-24T19:36:41.137Z,3.97
2022-12-24T19:39:09.520Z,6.35
2022-12-24T19:41:37.859Z,3.65
2022-12-24T19:44:07.626Z,4.80
2022-12-24T19:46:37.012Z,5.20
2022-12-24T19:49:07.085Z,4.85
2022-12-24T19:51:36.200Z,7.38
2022-12-24T19:54:05.984Z,9.85
2022-12-24T19:56:34.539Z,11.73
2022-12-24T19:59:03.542Z,8.02
2022-12-24T20:01:34.790Z,5.57
2022-12-24T20:04:03.806Z,4.22
2022-12-24T20:06:33.956Z,4.80
2022-12-24T20:09:04.915Z,5.15
2022-12-24T20:11:34.082Z,7.65
2022-12-24T20:14:04.038Z,4.95
2022-12-24T20:16:34.364Z,4.43
2022-12-24T20:19:04.386Z,4.50
2022-12-24T20:21:33.305Z,4.20
2022-12-24T20:24:01.690Z,5.85
2022-12-24T20:26:30.498Z,4.68
2022-12-24T20:28:58.876Z,5.55
2022-12-24T20:31:29.033Z,9.18
2022-12-24T20:33:59.587Z,11.05
2022-12-24T20:36:29.302Z,10.27
2022-12-24T20:38:58.187Z,6.47
2022-12-24T20:41:28.286Z,6.30
2022-12-24T20:43:58.572Z,5.68
2022-12-24T20:46:27.735Z,6.43
2022-12-24T20:48:58.614Z,8.95
2022-12-24T20:51:28.564Z,7.97
2022-12-24T20:53:58.673Z,8.13
2022-12-24T20:56:27.289Z,6.80
2022-12-24T20:58:55.913Z,6.38
2022-12-24T21:01:26.948Z,7.03
2022-12-24T21:03:56.116Z,7.03
2022-12-24T21:06:26.426Z,7.53
2022-12-24T21:08:55.226Z,7.97
2022-12-24T21:11:41.658Z,6.57
2022-12-24T21:14:10.201Z,6.82
2022-12-24T21:16:39.605Z,7.70
2022-12-24T21:19:08.995Z,6.35
2022-12-24T21:21:39.045Z,6.80
2022-12-24T21:24:07.798Z,6.18
2022-12-24T21:26:36.331Z,6.22
2022-12-24T21:29:05.178Z,8.25
2022-12-24T21:31:33.675Z,7.88
2022-12-24T21:34:02.056Z,8.10
2022-12-24T21:36:30.493Z,6.38
2022-12-24T21:39:00.192Z,7.38
2022-12-24T21:41:28.469Z,7.07
2022-12-24T21:43:56.834Z,5.93
2022-12-24T21:46:27.171Z,6.30
2022-12-24T21:49:14.248Z,6.75
2022-12-24T21:51:44.053Z,5.43
2022-12-24T21:54:28.667Z,6.28
2022-12-24T21:57:16.073Z,6.03
2022-12-24T21:59:44.695Z,5.93
2022-12-24T22:02:14.140Z,7.57
2022-12-24T22:04:42.820Z,13.07
2022-12-24T22:07:53.715Z,26.90
2022-12-24T22:13:09.644Z,45.70
2022-12-24T22:15:44.022Z,32.55
2022-12-24T22:18:12.392Z,23.73
2022-12-24T22:20:41.082Z,15.80
2022-12-24T22:23:09.635Z,12.30
2022-12-24T22:25:39.407Z,9.90
2022-12-24T22:28:07.929Z,6.60
2022-12-24T22:30:37.980Z,5.43
2022-12-24T22:33:06.441Z,5.43
2022-12-24T22:35:34.953Z,7.55
2022-12-24T22:38:03.218Z,6.60
2022-12-24T22:40:31.668Z,5.93
2022-12-24T22:43:01.353Z,8.45
2022-12-24T22:45:29.668Z,7.10
2022-12-24T22:47:57.948Z,6.30
2022-12-24T22:50:26.245Z,7.70
2022-12-24T22:52:54.502Z,6.07
2022-12-24T22:55:22.789Z,7.70
2022-12-24T22:57:51.036Z,6.65
2022-12-24T23:00:41.860Z,5.82
2022-12-24T23:03:10.644Z,6.72
2022-12-24T23:05:39.346Z,6.00
2022-12-24T23:08:08.445Z,7.15
2022-12-24T23:10:37.271Z,7.03
2022-12-24T23:13:23.222Z,8.35
2022-12-24T23:15:52.970Z,8.13
2022-12-24T23:18:21.327Z,7.28
2022-12-24T23:20:49.653Z,6.65
2022-12-24T23:23:18.067Z,5.88
2022-12-24T23:25:46.369Z,6.97
2022-12-24T23:28:14.810Z,7.10
2022-12-24T23:30:43.185Z,6.80
2022-12-24T23:33:12.964Z,6.57
2022-12-24T23:35:41.200Z,6.47
2022-12-24T23:38:09.526Z,6.47
2022-12-24T23:40:37.851Z,7.57
2022-12-24T23:43:06.140Z,7.72
2022-12-24T23:45:34.462Z,8.25
2022-12-24T23:48:02.689Z,6.47
2022-12-24T23:50:32.487Z,6.72
2022-12-24T23:53:00.704Z,8.65
2022-12-24T23:55:28.967Z,5.43
2022-12-24T23:57:57.237Z,5.55
